createdAt,value
2022-10-03T00:00:16.323Z,100.00
2022-10-03T00:02:51.937Z,100.00
2022-10-03T00:06:04.246Z,100.00
2022-10-03T00:09:28.834Z,100.00
2022-10-03T00:12:40.170Z,100.00
2022-10-03T00:15:32.386Z,100.00
2022-10-03T00:18:22.196Z,100.00
2022-10-03T00:21:51.974Z,100.00
2022-10-03T00:25:19.240Z,100.00
2022-10-03T00:28:39.147Z,100.00
2022-10-03T00:31:16.993Z,100.00
2022-10-03T00:34:26.469Z,100.00
2022-10-03T00:37:25.891Z,100.00
2022-10-03T00:40:55.821Z,100.00
2022-10-03T00:43:52.092Z,100.00
2022-10-03T00:46:52.625Z,100.00
2022-10-03T00:50:24.924Z,100.00
2022-10-03T00:53:51.911Z,100.00
2022-10-03T00:56:37.232Z,100.00
2022-10-03T00:59:55.778Z,100.00
2022-10-03T01:02:55.673Z,100.00
2022-10-03T01:05:58.543Z,100.00
2022-10-03T01:08:37.789Z,100.00
2022-10-03T01:12:36.341Z,100.00
2022-10-03T01:15:34.612Z,100.00
2022-10-03T01:18:53.000Z,100.00
2022-10-03T01:22:17.056Z,100.00
2022-10-03T01:25:11.044Z,100.00
2022-10-03T01:28:30.959Z,100.00
2022-10-03T01:31:06.268Z,100.00
2022-10-03T01:34:00.918Z,100.00
2022-10-03T01:37:17.390Z,100.00
2022-10-03T01:40:08.846Z,100.00
2022-10-03T01:43:03.344Z,100.00
2022-10-03T01:45:47.507Z,100.00
2022-10-03T01:49:14.032Z,100.00
2022-10-03T01:52:11.015Z,100.00
2022-10-03T01:55:08.236Z,100.00
2022-10-03T01:58:18.160Z,100.00
2022-10-03T02:01:08.170Z,100.00
2022-10-03T02:03:57.185Z,100.00
2022-10-03T02:07:06.796Z,100.00
2022-10-03T02:10:29.763Z,100.00
2022-10-03T02:13:40.923Z,100.00
2022-10-03T02:16:18.528Z,100.00
2022-10-03T02:18:48.842Z,100.00
2022-10-03T02:21:26.924Z,100.00
2022-10-03T02:24:15.489Z,100.00
2022-10-03T02:27:41.554Z,100.00
2022-10-03T02:30:32.040Z,100.00
2022-10-03T02:33:16.749Z,100.00
2022-10-03T02:36:45.033Z,100.00
2022-10-03T02:40:10.247Z,100.00
2022-10-03T02:43:19.435Z,100.00
2022-10-03T02:46:43.497Z,100.00
2022-10-03T02:50:00.881Z,100.00
2022-10-03T02:53:15.274Z,100.00
2022-10-03T02:56:20.985Z,100.00
2022-10-03T02:59:36.889Z,100.00
2022-10-03T03:02:28.541Z,100.00
2022-10-03T03:05:04.047Z,100.00
2022-10-03T03:08:20.095Z,100.00
2022-10-03T03:11:18.705Z,100.00
2022-10-03T03:14:48.754Z,100.00
2022-10-03T03:17:48.183Z,100.00
2022-10-03T03:20:56.020Z,100.00
2022-10-03T03:24:01.012Z,100.00
2022-10-03T03:27:27.298Z,100.00
2022-10-03T03:30:20.651Z,100.00
2022-10-03T03:32:59.552Z,100.00
2022-10-03T03:35:46.337Z,100.00
2022-10-03T03:38:37.850Z,100.00
2022-10-03T03:41:40.801Z,100.00
2022-10-03T03:45:29.477Z,100.00
2022-10-03T03:49:12.754Z,100.00
2022-10-03T03:52:18.830Z,100.00
2022-10-03T03:55:26.382Z,100.00
2022-10-03T03:58:24.226Z,100.00
2022-10-03T04:01:14.979Z,100.00
2022-10-03T04:04:20.028Z,100.00
2022-10-03T04:07:18.320Z,100.00
2022-10-03T04:10:18.834Z,100.00
2022-10-03T04:13:41.484Z,100.00
2022-10-03T04:17:01.000Z,100.00
2022-10-03T04:19:55.162Z,100.00
2022-10-03T04:23:12.464Z,100.00
2022-10-03T04:26:24.513Z,100.00
2022-10-03T04:29:17.329Z,100.00
2022-10-03T04:31:57.856Z,100.00
2022-10-03T04:35:00.617Z,100.00
2022-10-03T04:37:57.683Z,100.00
2022-10-03T04:40:54.252Z,100.00
2022-10-03T04:44:02.514Z,100.00
2022-10-03T04:47:01.109Z,100.00
2022-10-03T04:49:42.628Z,100.00
2022-10-03T04:52:51.939Z,100.00
2022-10-03T04:55:45.828Z,100.00
2022-10-03T04:58:43.215Z,100.00
2022-10-03T05:01:48.127Z,100.00
2022-10-03T05:04:43.370Z,100.00
2022-10-03T05:07:45.662Z,100.00
2022-10-03T05:10:48.560Z,100.00
2022-10-03T05:13:34.078Z,100.00
2022-10-03T05:17:04.322Z,100.00
2022-10-03T05:20:22.797Z,100.00
2022-10-03T05:23:47.831Z,100.00
2022-10-03T05:27:00.406Z,100.00
2022-10-03T05:30:15.383Z,100.00
2022-10-03T05:33:39.641Z,100.00
2022-10-03T05:36:24.760Z,100.00
2022-10-03T05:40:02.666Z,100.00
2022-10-03T05:42:46.470Z,100.00
2022-10-03T05:45:26.208Z,100.00
2022-10-03T05:48:41.195Z,100.00
2022-10-03T05:51:54.041Z,100.00
2022-10-03T05:55:24.383Z,100.00
2022-10-03T05:58:37.753Z,100.00
2022-10-03T06:01:57.751Z,100.00
2022-10-03T06:05:12.403Z,100.00
2022-10-03T06:08:26.982Z,100.00
2022-10-03T06:12:02.285Z,100.00
2022-10-03T06:15:05.272Z,100.00
2022-10-03T06:17:56.593Z,100.00
2022-10-03T06:21:19.089Z,100.00
2022-10-03T06:24:32.696Z,100.00
2022-10-03T06:27:43.242Z,100.00
2022-10-03T06:30:58.182Z,100.00
2022-10-03T06:34:10.370Z,100.00
2022-10-03T06:36:49.047Z,100.00
2022-10-03T06:40:17.271Z,100.00
2022-10-03T06:43:26.605Z,100.00
2022-10-03T06:46:46.747Z,100.00
2022-10-03T06:49:49.581Z,100.00
2022-10-03T06:53:12.390Z,100.00
2022-10-03T06:56:31.950Z,100.00
2022-10-03T06:59:37.153Z,100.00
2022-10-03T07:02:29.900Z,100.00
2022-10-03T07:05:41.238Z,100.00
2022-10-03T07:09:16.197Z,100.00
2022-10-03T07:12:38.204Z,100.00
2022-10-03T07:16:27.007Z,100.00
2022-10-03T07:30:53.370Z,100.00
2022-10-03T07:34:30.849Z,100.00
2022-10-03T07:51:42.431Z,100.00
2022-10-03T07:55:03.424Z,100.00
2022-10-03T08:18:55.085Z,98.31
2022-10-03T08:25:38.650Z,99.48
2022-10-03T08:29:07.363Z,100.00
2022-10-03T08:53:08.517Z,100.00
2022-10-03T08:56:09.213Z,100.00
2022-10-03T08:59:31.104Z,100.00
2022-10-03T09:14:04.726Z,100.00
2022-10-03T09:17:21.562Z,100.00
2022-10-03T09:20:57.687Z,100.00
2022-10-03T09:28:03.313Z,100.00
2022-10-03T09:42:06.183Z,100.00
2022-10-03T09:44:51.616Z,100.00
2022-10-03T09:47:37.680Z,100.00
2022-10-03T09:50:42.142Z,97.82
2022-10-03T10:03:53.646Z,95.89
2022-10-03T10:17:22.892Z,95.58
2022-10-03T10:23:34.008Z,99.50
2022-10-03T10:26:43.770Z,96.83
2022-10-03T10:29:39.504Z,97.61
2022-10-03T10:33:06.480Z,99.91
2022-10-03T10:40:14.780Z,95.00
2022-10-03T10:44:16.637Z,98.10
2022-10-03T10:51:45.899Z,92.12
2022-10-03T10:54:54.022Z,95.04
2022-10-03T10:58:57.926Z,92.52
2022-10-03T11:02:27.149Z,92.04
2022-10-03T11:05:37.034Z,92.56
2022-10-03T11:12:42.896Z,91.49
2022-10-03T11:16:06.238Z,94.62
2022-10-03T11:19:43.210Z,87.64
2022-10-03T11:22:52.511Z,85.94
2022-10-03T11:26:25.825Z,88.58
2022-10-03T11:33:11.337Z,85.05
2022-10-03T11:36:05.179Z,81.50
2022-10-03T11:38:51.534Z,81.15
2022-10-03T11:42:33.874Z,81.76
2022-10-03T11:55:16.717Z,84.89
2022-10-03T11:58:06.384Z,87.38
2022-10-03T12:00:41.307Z,88.50
2022-10-03T12:03:26.845Z,90.21
2022-10-03T12:06:34.177Z,89.84
2022-10-03T12:09:25.213Z,90.00
2022-10-03T12:12:31.757Z,90.51
2022-10-03T12:19:16.557Z,87.63
2022-10-03T12:38:00.969Z,98.86
2022-10-03T12:40:46.487Z,97.83
2022-10-03T12:44:10.590Z,94.88
2022-10-03T12:47:56.394Z,94.14
2022-10-03T12:50:59.177Z,92.99
2022-10-03T12:54:12.809Z,94.25
2022-10-03T12:57:30.579Z,94.89
2022-10-03T13:00:10.211Z,95.43
2022-10-03T13:02:54.501Z,97.57
2022-10-03T13:07:01.893Z,96.30
2022-10-03T13:09:46.743Z,100.00
2022-10-03T13:12:48.018Z,100.00
2022-10-03T13:16:03.229Z,99.96
2022-10-03T13:21:55.142Z,96.67
2022-10-03T13:24:56.190Z,93.09
2022-10-03T13:27:53.080Z,91.41
2022-10-03T13:30:39.297Z,93.09
2022-10-03T13:33:27.746Z,91.03
2022-10-03T13:36:14.864Z,92.60
2022-10-03T13:39:25.740Z,96.79
2022-10-03T13:42:33.647Z,98.72
2022-10-03T13:45:40.532Z,100.00
2022-10-03T13:48:20.530Z,100.00
2022-10-03T13:51:06.128Z,100.00
2022-10-03T13:57:10.054Z,100.00
2022-10-03T13:59:58.674Z,100.00
2022-10-03T14:28:36.189Z,95.76
2022-10-03T14:31:34.805Z,93.42
2022-10-03T14:40:38.762Z,94.51
2022-10-03T14:46:57.119Z,99.26
2022-10-03T14:53:07.661Z,100.00
2022-10-03T14:55:48.621Z,100.00
2022-10-03T14:58:22.116Z,98.76
2022-10-03T15:01:23.492Z,98.06
2022-10-03T15:18:33.600Z,96.64
2022-10-03T15:37:50.126Z,100.00
2022-10-03T16:11:25.855Z,100.00
2022-10-03T16:14:26.496Z,100.00
2022-10-03T16:17:39.267Z,100.00
2022-10-03T16:20:42.526Z,100.00
2022-10-03T16:23:50.337Z,100.00
2022-10-03T16:27:17.084Z,100.00
2022-10-03T16:36:08.064Z,100.00
2022-10-03T16:38:43.295Z,100.00
2022-10-03T16:41:44.126Z,100.00
2022-10-03T17:04:49.200Z,100.00
2022-10-03T17:07:38.255Z,100.00
2022-10-03T17:13:24.425Z,100.00
2022-10-03T17:19:45.094Z,100.00
2022-10-03T17:22:23.653Z,100.00
2022-10-03T17:25:18.870Z,100.00
2022-10-03T17:37:36.431Z,100.00
2022-10-03T17:40:30.114Z,100.00
2022-10-03T18:23:50.079Z,100.00
2022-10-03T18:26:45.335Z,100.00
2022-10-03T18:49:35.423Z,100.00
2022-10-03T18:52:30.500Z,100.00
2022-10-03T18:55:18.079Z,100.00
2022-10-03T18:58:13.389Z,100.00
2022-10-03T19:01:17.819Z,100.00
2022-10-03T19:03:59.142Z,100.00
2022-10-03T19:18:59.454Z,100.00
2022-10-03T19:56:06.436Z,100.00
2022-10-03T20:01:16.472Z,100.00
2022-10-03T20:03:57.811Z,100.00
2022-10-03T20:12:20.649Z,100.00
2022-10-03T20:14:51.708Z,100.00
2022-10-03T20:32:23.383Z,100.00
2022-10-03T20:45:07.037Z,100.00
2022-10-03T20:48:03.954Z,100.00
2022-10-03T20:50:49.261Z,100.00
2022-10-03T20:53:22.987Z,100.00
2022-10-03T20:56:12.154Z,100.00
2022-10-03T20:58:55.658Z,100.00
2022-10-03T21:01:35.463Z,100.00
2022-10-03T21:04:25.702Z,100.00
2022-10-03T21:07:16.073Z,100.00
2022-10-03T21:10:00.803Z,100.00
2022-10-03T21:12:59.001Z,100.00
2022-10-03T21:25:08.834Z,100.00
2022-10-03T21:27:52.548Z,100.00
2022-10-03T21:44:05.623Z,100.00
2022-10-03T21:47:03.964Z,100.00
2022-10-03T21:49:47.743Z,100.00
2022-10-03T21:53:07.674Z,100.00
2022-10-03T21:56:25.748Z,100.00
2022-10-03T21:59:38.522Z,100.00
2022-10-03T22:03:16.323Z,100.00
2022-10-03T22:05:55.746Z,100.00
2022-10-03T22:08:33.170Z,100.00
2022-10-03T22:11:40.585Z,100.00
2022-10-03T22:14:41.394Z,100.00
2022-10-03T22:17:37.065Z,100.00
2022-10-03T22:20:21.867Z,100.00
2022-10-03T22:23:12.920Z,100.00
2022-10-03T22:26:05.510Z,100.00
2022-10-03T22:29:16.690Z,100.00
2022-10-03T22:32:20.792Z,100.00
2022-10-03T22:35:30.891Z,100.00
2022-10-03T22:37:58.209Z,100.00
2022-10-03T22:40:27.554Z,100.00
2022-10-03T22:42:58.557Z,100.00
2022-10-03T22:45:32.985Z,100.00
2022-10-03T22:48:12.393Z,100.00
2022-10-03T22:50:43.341Z,100.00
2022-10-03T22:53:21.220Z,100.00
2022-10-03T22:55:58.397Z,100.00
2022-10-03T22:58:30.557Z,100.00
2022-10-03T23:01:02.270Z,100.00
2022-10-03T23:03:36.140Z,100.00
2022-10-03T23:06:53.637Z,100.00
2022-10-03T23:09:36.514Z,100.00
2022-10-03T23:12:11.205Z,100.00
2022-10-03T23:14:48.147Z,100.00
2022-10-03T23:17:42.619Z,100.00
2022-10-03T23:20:59.223Z,100.00
2022-10-03T23:24:13.729Z,100.00
2022-10-03T23:27:26.921Z,100.00
2022-10-03T23:30:11.942Z,100.00
2022-10-03T23:32:47.687Z,100.00
2022-10-03T23:35:41.358Z,100.00
2022-10-03T23:38:33.273Z,100.00
2022-10-03T23:41:08.224Z,100.00
2022-10-03T23:43:58.249Z,100.00
2022-10-03T23:46:31.003Z,100.00
2022-10-03T23:49:02.067Z,100.00
2022-10-03T23:51:36.423Z,100.00
2022-10-03T23:54:11.867Z,100.00
2022-10-03T23:56:46.693Z,100.00
2022-10-03T23:59:16.237Z,100.00
